Flight Track Log - Related Links

Times and Time Zones

All times are in EST time to prevent confusion due to time zone crossing. See the SWA470 flight status page for this flight to view local times or setup timezone preferences in your user account.

Time Position Orientation Groundspeed Altitude Reporting Facility
EST Latitude Longitude Course Direction KTS MPH feet Rate Location/Type
Sun 07:03:09 PM 34.2542 -118.4908 301° West 248 285 7,700  Level Los Angeles Center
Sun 07:04:11 PM 34.3247 -118.5411 330° Northwest 279 321 12,200 3,823 Climbing Los Angeles Center
Sun 07:05:13 PM 34.4092 -118.5964 332° Northwest 314 361 15,600 2,758 Climbing Los Angeles Center
Sun 07:06:15 PM 34.4792 -118.6444 330° Northwest 355 409 17,900 2,592 Climbing Los Angeles Center
Sun 07:07:00 PM 34.6297 -118.8045 321° Northwest  Level Estimated
Sun 07:07:18 PM 34.5942 -118.7200 332° Northwest 396 456 21,000  Level Los Angeles Center
Sun 07:08:20 PM 34.6944 -118.7889 331° Northwest 411 473 24,300 3,000 Climbing Los Angeles Center
Sun 07:09:22 PM 34.7936 -118.8569 331° Northwest 413 475 27,200 2,806 Climbing Los Angeles Center
Sun 07:10:24 PM 34.8828 -118.9417 322° Northwest 409 471 30,100 2,952 Climbing Los Angeles Center
Sun 07:11:26 PM 34.9744 -119.0272 323° Northwest 393 452 33,300 2,468 Climbing Los Angeles Center
Sun 07:12:28 PM 35.0553 -119.1072 321° Northwest 378 435 35,200 1,258 Climbing Los Angeles Center
Sun 07:13:30 PM 35.1558 -119.2067 321° Northwest 386 444 35,900 387 Climbing Los Angeles Center
Sun 07:14:32 PM 35.2397 -119.2875 322° Northwest 386 444 36,000 48 Climbing Los Angeles Center
Sun 07:15:34 PM 35.3233 -119.3697 321° Northwest 385 443 36,000  Level Los Angeles Center
Sun 07:16:36 PM 35.4058 -119.4517 321° Northwest 384 442 36,000  Level Los Angeles Center
Sun 07:17:38 PM 35.4886 -119.5350 321° Northwest 384 442 36,000  Level Los Angeles Center
Sun 07:18:40 PM 35.5883 -119.6336 321° Northwest 385 443 36,000  Level Los Angeles Center
Sun 07:19:42 PM 35.6708 -119.7156 321° Northwest 384 442 36,000  Level Los Angeles Center
Sun 07:20:44 PM 35.7539 -119.7992 321° Northwest 386 444 36,000  Level Los Angeles Center
Sun 07:21:46 PM 35.8369 -119.8831 321° Northwest 388 447 36,000  Level Los Angeles Center
Sun 07:22:29 PM 35.9022 -119.9483 321° Northwest 388 447 36,000  Level Oakland Center
Sun 07:23:30 PM 35.9850 -120.0322 321° Northwest 388 447 36,000  Level Oakland Center
Sun 07:24:31 PM 36.0683 -120.1158 321° Northwest 388 447 36,000 -689 Level Oakland Center
Sun 07:25:32 PM 36.1519 -120.2019 320° Northwest 393 452 34,600 -1,659 Descending Oakland Center
Sun 07:26:34 PM 36.2386 -120.2906 320° Northwest 405 466 32,600 -1,951 Descending Oakland Center
Sun 07:27:35 PM 36.3242 -120.3775 321° Northwest 399 459 30,600 -1,770 Descending Oakland Center
Sun 07:28:36 PM 36.4067 -120.4608 321° Northwest 389 448 29,000 -1,073 Descending Oakland Center
Sun 07:29:38 PM 36.5056 -120.5664 319° Northwest 389 448 28,400 -537 Descending Oakland Center
Sun 07:30:39 PM 36.5881 -120.6483 321° Northwest 384 442 27,900 -1,366 Descending Oakland Center
Sun 07:31:41 PM 36.6689 -120.7314 321° Northwest 378 435 25,600 -2,537 Descending Oakland Center
Sun 07:32:42 PM 36.7506 -120.8169 320° Northwest 382 440 22,700 -1,967 Descending Oakland Center
Sun 07:33:43 PM 36.8294 -120.9122 316° Northwest 370 426 21,600 -1,024 Descending Oakland Center
Sun 07:34:45 PM 36.9025 -120.9961 317° Northwest 358 412 20,600 -1,122 Descending Oakland Center
Sun 07:35:46 PM 36.9744 -121.0761 318° Northwest 348 400 19,300 -1,770 Descending Oakland Center
Sun 07:36:47 PM 37.0500 -121.1647 317° Northwest 347 399 17,000 -2,244 Descending Oakland Center
Sun 07:37:49 PM 37.1153 -121.2397 318° Northwest 344 396 14,700 -2,244 Descending Oakland Center
Sun 07:38:50 PM 37.1847 -121.3203 317° Northwest 341 392 12,400 -2,098 Descending Oakland Center
Sun 07:39:52 PM 37.2522 -121.3972 318° Northwest 331 381 10,400 -1,268 Descending Oakland Center
Sun 07:40:53 PM 37.3106 -121.4667 317° Northwest 293 337 9,800 -1,134 Descending Oakland Center
Sun 07:41:59 PM 37.3833 -121.5500 318° Northwest 268 308 8,000 -1,190 Descending Northern Cal TRACON
Sun 07:42:59 PM 37.4333 -121.6167 313° West 277 319 7,300 -750 Descending Northern Cal TRACON
Sun 07:43:59 PM 37.4667 -121.7000 297° West 278 320 6,500 -700 Descending Northern Cal TRACON
Sun 07:44:59 PM 37.5000 -121.7833 297° West 260 299 5,900 -550 Descending Northern Cal TRACON
Sun 07:45:59 PM 37.5333 -121.8500 302° West 224 258 5,400 -450 Descending Northern Cal TRACON
Sun 07:46:59 PM 37.5500 -121.9333 284° West 215 247 5,000 -400 Descending Northern Cal TRACON
Sun 07:47:59 PM 37.5833 -122.0000 302° West 210 242 4,600 -650 Descending Northern Cal TRACON
Sun 07:48:59 PM 37.6000 -122.0500 293° West 203 234 3,700 -950 Descending Northern Cal TRACON
Sun 07:49:59 PM 37.6333 -122.1167 302° West 171 197 2,700 -1,200 Descending Northern Cal TRACON
Sun 07:50:59 PM 37.6667 -122.1500 322° Northwest 151 174 1,300 -1,050 Descending Northern Cal TRACON
Sun 07:51:59 PM 37.6833 -122.1833 302° West 124 143 600 -600 Descending Northern Cal TRACON
Sun 07:52:59 PM 37.7000 -122.2167 302° West 118 136 100 -500 Descending Northern Cal TRACON
Sun 07:55:00 PM 37.7167 -122.2167 270° West  Level FlightAware Approximate
Sun 08:02:00 PM 37.7213 -122.2212 270° West  Level Estimated

Login

Don't have an account? Register now (free) for customized features, flight alerts, and more!